Terminal Aerodrome Forecast
Issued by NWS

Home | Current Version | Previous Version | Text Only | Print | Product List | Glossary On
Versions: 1 2 3 4 5 6 7 8 9 10 11 12 13 14 15
000
FTUS46 KMTR 221100
TAFSJC
TAF
KSJC 221120Z 2212/2312 VRB03KT P6SM OVC016
     FM221730 VRB03KT P6SM SCT018
     FM222000 30010KT P6SM SKC
     FM230300 31005KT P6SM SKC
     FM230500 31003KT P6SM BKN015=

USA.gov is the U.S. government's official web portal to all federal, state and local government web resources and services.